sensor_id;sensor_type;location;lat;lon;timestamp;P1;durP1;ratioP1;P2;durP2;ratioP2
29984;SDS011;17387;42.690;23.328;2022-12-29T00:02:12;39.35;;;26.23;;
29984;SDS011;17387;42.690;23.328;2022-12-29T00:04:39;36.88;;;24.20;;
29984;SDS011;17387;42.690;23.328;2022-12-29T00:07:05;40.58;;;25.58;;
29984;SDS011;17387;42.690;23.328;2022-12-29T00:09:31;38.67;;;25.15;;
29984;SDS011;17387;42.690;23.328;2022-12-29T00:11:57;41.90;;;26.33;;
29984;SDS011;17387;42.690;23.328;2022-12-29T00:14:23;44.10;;;28.13;;
29984;SDS011;17387;42.690;23.328;2022-12-29T00:17:07;44.63;;;28.90;;
29984;SDS011;17387;42.690;23.328;2022-12-29T00:19:32;53.55;;;32.08;;
29984;SDS011;17387;42.690;23.328;2022-12-29T00:22:16;61.83;;;36.25;;
29984;SDS011;17387;42.690;23.328;2022-12-29T00:25:00;63.30;;;37.13;;
29984;SDS011;17387;42.690;23.328;2022-12-29T00:27:27;62.30;;;37.22;;
29984;SDS011;17387;42.690;23.328;2022-12-29T00:30:14;61.38;;;37.65;;
29984;SDS011;17387;42.690;23.328;2022-12-29T00:33:00;61.95;;;37.35;;
29984;SDS011;17387;42.690;23.328;2022-12-29T00:35:57;56.60;;;35.60;;
29984;SDS011;17387;42.690;23.328;2022-12-29T00:41:08;49.85;;;30.48;;
29984;SDS011;17387;42.690;23.328;2022-12-29T00:43:52;49.08;;;31.05;;
29984;SDS011;17387;42.690;23.328;2022-12-29T00:46:30;50.20;;;31.08;;
29984;SDS011;17387;42.690;23.328;2022-12-29T00:48:56;52.13;;;31.88;;
29984;SDS011;17387;42.690;23.328;2022-12-29T00:51:40;53.33;;;32.83;;
29984;SDS011;17387;42.690;23.328;2022-12-29T00:54:05;52.80;;;33.67;;
29984;SDS011;17387;42.690;23.328;2022-12-29T00:56:31;55.30;;;33.33;;
29984;SDS011;17387;42.690;23.328;2022-12-29T00:58:59;50.15;;;32.42;;
29984;SDS011;17387;42.690;23.328;2022-12-29T01:01:25;51.22;;;31.88;;
29984;SDS011;17387;42.690;23.328;2022-12-29T01:03:51;51.80;;;31.48;;
29984;SDS011;17387;42.690;23.328;2022-12-29T01:06:17;50.70;;;32.40;;
29984;SDS011;17387;42.690;23.328;2022-12-29T01:08:42;54.42;;;30.63;;
29984;SDS011;17387;42.690;23.328;2022-12-29T01:11:09;49.65;;;30.15;;
29984;SDS011;17387;42.690;23.328;2022-12-29T01:13:36;50.33;;;30.77;;
29984;SDS011;17387;42.690;23.328;2022-12-29T01:16:03;47.78;;;29.75;;
29984;SDS011;17387;42.690;23.328;2022-12-29T01:18:29;46.53;;;28.85;;
29984;SDS011;17387;42.690;23.328;2022-12-29T01:21:05;47.80;;;29.10;;
29984;SDS011;17387;42.690;23.328;2022-12-29T01:23:31;44.45;;;28.98;;
29984;SDS011;17387;42.690;23.328;2022-12-29T01:25:57;39.13;;;26.85;;
29984;SDS011;17387;42.690;23.328;2022-12-29T01:28:33;41.63;;;26.00;;
29984;SDS011;17387;42.690;23.328;2022-12-29T01:30:59;39.42;;;25.23;;
29984;SDS011;17387;42.690;23.328;2022-12-29T01:33:25;40.17;;;25.27;;
29984;SDS011;17387;42.690;23.328;2022-12-29T01:35:51;38.17;;;24.50;;
29984;SDS011;17387;42.690;23.328;2022-12-29T01:38:16;35.10;;;23.65;;
29984;SDS011;17387;42.690;23.328;2022-12-29T01:40:45;42.17;;;24.30;;
29984;SDS011;17387;42.690;23.328;2022-12-29T01:43:12;36.10;;;24.10;;
29984;SDS011;17387;42.690;23.328;2022-12-29T01:45:40;37.83;;;24.05;;
29984;SDS011;17387;42.690;23.328;2022-12-29T01:48:10;35.90;;;23.63;;
29984;SDS011;17387;42.690;23.328;2022-12-29T01:50:39;39.17;;;24.85;;
29984;SDS011;17387;42.690;23.328;2022-12-29T01:53:15;38.58;;;23.90;;
29984;SDS011;17387;42.690;23.328;2022-12-29T01:56:04;39.05;;;24.50;;
29984;SDS011;17387;42.690;23.328;2022-12-29T01:58:34;39.92;;;25.45;;
29984;SDS011;17387;42.690;23.328;2022-12-29T02:03:29;37.88;;;24.52;;
29984;SDS011;17387;42.690;23.328;2022-12-29T02:06:14;35.80;;;24.10;;
29984;SDS011;17387;42.690;23.328;2022-12-29T02:08:46;36.95;;;24.30;;
29984;SDS011;17387;42.690;23.328;2022-12-29T02:11:14;38.92;;;24.67;;
29984;SDS011;17387;42.690;23.328;2022-12-29T02:13:41;39.05;;;24.83;;
29984;SDS011;17387;42.690;23.328;2022-12-29T02:22:27;35.97;;;23.83;;
29984;SDS011;17387;42.690;23.328;2022-12-29T02:30:26;39.65;;;24.88;;
29984;SDS011;17387;42.690;23.328;2022-12-29T02:41:13;37.40;;;23.98;;
29984;SDS011;17387;42.690;23.328;2022-12-29T02:46:44;37.08;;;24.10;;
29984;SDS011;17387;42.690;23.328;2022-12-29T02:49:19;33.13;;;23.30;;
29984;SDS011;17387;42.690;23.328;2022-12-29T02:54:42;34.25;;;23.80;;
29984;SDS011;17387;42.690;23.328;2022-12-29T02:57:15;36.88;;;23.23;;
29984;SDS011;17387;42.690;23.328;2022-12-29T02:59:41;34.10;;;23.48;;
29984;SDS011;17387;42.690;23.328;2022-12-29T03:07:25;36.17;;;23.73;;
29984;SDS011;17387;42.690;23.328;2022-12-29T03:10:21;34.78;;;23.23;;
29984;SDS011;17387;42.690;23.328;2022-12-29T03:16:24;37.97;;;23.70;;
29984;SDS011;17387;42.690;23.328;2022-12-29T03:19:16;37.40;;;23.35;;
29984;SDS011;17387;42.690;23.328;2022-12-29T03:21:49;38.08;;;23.48;;
29984;SDS011;17387;42.690;23.328;2022-12-29T03:24:41;36.33;;;24.27;;
29984;SDS011;17387;42.690;23.328;2022-12-29T03:27:10;41.85;;;24.20;;
29984;SDS011;17387;42.690;23.328;2022-12-29T03:29:47;38.78;;;24.23;;
29984;SDS011;17387;42.690;23.328;2022-12-29T03:32:23;36.83;;;24.10;;
29984;SDS011;17387;42.690;23.328;2022-12-29T03:34:53;40.17;;;25.15;;
29984;SDS011;17387;42.690;23.328;2022-12-29T03:37:24;37.70;;;25.15;;
29984;SDS011;17387;42.690;23.328;2022-12-29T03:39:53;37.60;;;25.67;;
29984;SDS011;17387;42.690;23.328;2022-12-29T03:42:21;38.45;;;25.15;;
29984;SDS011;17387;42.690;23.328;2022-12-29T03:44:53;42.50;;;25.90;;
29984;SDS011;17387;42.690;23.328;2022-12-29T03:47:21;41.00;;;26.20;;
29984;SDS011;17387;42.690;23.328;2022-12-29T03:49:47;45.97;;;27.52;;
29984;SDS011;17387;42.690;23.328;2022-12-29T03:52:13;42.92;;;27.42;;
29984;SDS011;17387;42.690;23.328;2022-12-29T03:54:39;42.92;;;27.35;;
29984;SDS011;17387;42.690;23.328;2022-12-29T03:57:04;44.70;;;27.65;;
29984;SDS011;17387;42.690;23.328;2022-12-29T03:59:30;48.65;;;28.50;;
29984;SDS011;17387;42.690;23.328;2022-12-29T04:01:55;46.33;;;29.10;;
29984;SDS011;17387;42.690;23.328;2022-12-29T04:04:21;50.28;;;30.17;;
29984;SDS011;17387;42.690;23.328;2022-12-29T04:06:49;48.38;;;29.92;;
29984;SDS011;17387;42.690;23.328;2022-12-29T04:09:15;48.83;;;30.00;;
29984;SDS011;17387;42.690;23.328;2022-12-29T04:11:40;48.70;;;31.70;;
29984;SDS011;17387;42.690;23.328;2022-12-29T04:14:06;46.83;;;30.02;;
29984;SDS011;17387;42.690;23.328;2022-12-29T04:16:31;47.35;;;30.10;;
29984;SDS011;17387;42.690;23.328;2022-12-29T04:18:56;48.53;;;30.52;;
29984;SDS011;17387;42.690;23.328;2022-12-29T04:21:22;47.03;;;30.58;;
29984;SDS011;17387;42.690;23.328;2022-12-29T04:23:47;48.83;;;30.95;;
29984;SDS011;17387;42.690;23.328;2022-12-29T04:26:12;47.10;;;28.98;;
29984;SDS011;17387;42.690;23.328;2022-12-29T04:28:38;49.45;;;30.15;;
29984;SDS011;17387;42.690;23.328;2022-12-29T04:31:03;48.80;;;30.23;;
29984;SDS011;17387;42.690;23.328;2022-12-29T04:33:29;48.60;;;30.50;;
29984;SDS011;17387;42.690;23.328;2022-12-29T04:35:55;47.95;;;29.30;;
29984;SDS011;17387;42.690;23.328;2022-12-29T04:38:21;50.08;;;30.65;;
29984;SDS011;17387;42.690;23.328;2022-12-29T04:40:48;52.92;;;30.30;;
29984;SDS011;17387;42.690;23.328;2022-12-29T04:43:14;50.70;;;30.33;;
29984;SDS011;17387;42.690;23.328;2022-12-29T04:45:43;52.55;;;30.42;;
29984;SDS011;17387;42.690;23.328;2022-12-29T04:48:09;49.53;;;30.42;;
29984;SDS011;17387;42.690;23.328;2022-12-29T04:50:35;51.95;;;31.65;;
29984;SDS011;17387;42.690;23.328;2022-12-29T04:53:00;54.10;;;32.53;;
29984;SDS011;17387;42.690;23.328;2022-12-29T04:55:26;54.55;;;31.95;;
29984;SDS011;17387;42.690;23.328;2022-12-29T04:57:51;53.17;;;30.73;;
29984;SDS011;17387;42.690;23.328;2022-12-29T05:00:17;52.00;;;30.80;;
29984;SDS011;17387;42.690;23.328;2022-12-29T05:02:42;52.28;;;31.65;;
29984;SDS011;17387;42.690;23.328;2022-12-29T05:05:08;52.35;;;31.23;;
29984;SDS011;17387;42.690;23.328;2022-12-29T05:07:33;52.50;;;31.85;;
29984;SDS011;17387;42.690;23.328;2022-12-29T05:09:59;51.13;;;31.67;;
29984;SDS011;17387;42.690;23.328;2022-12-29T05:12:25;50.72;;;30.55;;
29984;SDS011;17387;42.690;23.328;2022-12-29T05:14:50;51.47;;;30.75;;
29984;SDS011;17387;42.690;23.328;2022-12-29T05:20:37;50.83;;;28.90;;
29984;SDS011;17387;42.690;23.328;2022-12-29T05:23:02;49.35;;;27.67;;
29984;SDS011;17387;42.690;23.328;2022-12-29T05:25:28;44.15;;;27.75;;
29984;SDS011;17387;42.690;23.328;2022-12-29T05:27:53;44.05;;;27.48;;
29984;SDS011;17387;42.690;23.328;2022-12-29T05:30:18;43.45;;;27.17;;
29984;SDS011;17387;42.690;23.328;2022-12-29T05:32:44;44.33;;;27.27;;
29984;SDS011;17387;42.690;23.328;2022-12-29T05:35:09;42.38;;;27.20;;
29984;SDS011;17387;42.690;23.328;2022-12-29T05:37:34;39.17;;;26.52;;
29984;SDS011;17387;42.690;23.328;2022-12-29T05:40:00;41.45;;;26.33;;
29984;SDS011;17387;42.690;23.328;2022-12-29T05:42:25;37.20;;;24.30;;
29984;SDS011;17387;42.690;23.328;2022-12-29T05:44:51;38.80;;;25.48;;
29984;SDS011;17387;42.690;23.328;2022-12-29T05:47:18;42.63;;;25.40;;
29984;SDS011;17387;42.690;23.328;2022-12-29T05:49:44;43.67;;;26.65;;
29984;SDS011;17387;42.690;23.328;2022-12-29T05:55:09;37.67;;;25.10;;
29984;SDS011;17387;42.690;23.328;2022-12-29T05:57:34;42.72;;;25.58;;
29984;SDS011;17387;42.690;23.328;2022-12-29T06:00:00;38.22;;;25.80;;
29984;SDS011;17387;42.690;23.328;2022-12-29T06:02:26;42.78;;;26.13;;
29984;SDS011;17387;42.690;23.328;2022-12-29T06:04:51;37.72;;;25.40;;
29984;SDS011;17387;42.690;23.328;2022-12-29T06:07:17;43.22;;;25.63;;
29984;SDS011;17387;42.690;23.328;2022-12-29T06:09:42;38.83;;;24.80;;
29984;SDS011;17387;42.690;23.328;2022-12-29T06:12:07;48.55;;;27.92;;
29984;SDS011;17387;42.690;23.328;2022-12-29T06:14:33;46.10;;;27.70;;
29984;SDS011;17387;42.690;23.328;2022-12-29T06:16:58;53.58;;;28.65;;
29984;SDS011;17387;42.690;23.328;2022-12-29T06:19:24;45.85;;;30.30;;
29984;SDS011;17387;42.690;23.328;2022-12-29T06:21:50;48.88;;;31.92;;
29984;SDS011;17387;42.690;23.328;2022-12-29T06:24:17;45.97;;;29.38;;
29984;SDS011;17387;42.690;23.328;2022-12-29T06:26:42;50.03;;;31.55;;
29984;SDS011;17387;42.690;23.328;2022-12-29T06:29:08;48.00;;;30.67;;
29984;SDS011;17387;42.690;23.328;2022-12-29T06:31:33;50.20;;;30.50;;
29984;SDS011;17387;42.690;23.328;2022-12-29T06:33:59;50.05;;;30.23;;
29984;SDS011;17387;42.690;23.328;2022-12-29T06:36:24;49.42;;;31.13;;
29984;SDS011;17387;42.690;23.328;2022-12-29T06:38:50;46.13;;;30.02;;
29984;SDS011;17387;42.690;23.328;2022-12-29T06:41:17;53.08;;;30.33;;
29984;SDS011;17387;42.690;23.328;2022-12-29T06:43:44;47.20;;;30.10;;
29984;SDS011;17387;42.690;23.328;2022-12-29T06:46:09;44.55;;;27.40;;
29984;SDS011;17387;42.690;23.328;2022-12-29T06:48:34;45.00;;;27.10;;
29984;SDS011;17387;42.690;23.328;2022-12-29T06:51:00;49.03;;;29.58;;
29984;SDS011;17387;42.690;23.328;2022-12-29T06:53:26;40.45;;;26.42;;
29984;SDS011;17387;42.690;23.328;2022-12-29T06:55:51;40.80;;;25.30;;
29984;SDS011;17387;42.690;23.328;2022-12-29T06:58:17;39.38;;;25.00;;
29984;SDS011;17387;42.690;23.328;2022-12-29T07:00:42;46.70;;;27.10;;
29984;SDS011;17387;42.690;23.328;2022-12-29T07:03:07;42.30;;;25.85;;
29984;SDS011;17387;42.690;23.328;2022-12-29T07:05:33;44.70;;;26.58;;
29984;SDS011;17387;42.690;23.328;2022-12-29T07:07:58;50.22;;;29.83;;
29984;SDS011;17387;42.690;23.328;2022-12-29T07:10:25;48.85;;;27.73;;
29984;SDS011;17387;42.690;23.328;2022-12-29T07:12:50;49.30;;;27.80;;
29984;SDS011;17387;42.690;23.328;2022-12-29T07:15:16;51.65;;;28.27;;
29984;SDS011;17387;42.690;23.328;2022-12-29T07:17:41;46.85;;;28.33;;
29984;SDS011;17387;42.690;23.328;2022-12-29T07:20:07;46.15;;;27.25;;
29984;SDS011;17387;42.690;23.328;2022-12-29T07:22:33;47.08;;;28.00;;
29984;SDS011;17387;42.690;23.328;2022-12-29T07:24:59;43.58;;;27.95;;
29984;SDS011;17387;42.690;23.328;2022-12-29T07:27:24;48.65;;;28.17;;
29984;SDS011;17387;42.690;23.328;2022-12-29T07:29:50;47.63;;;26.80;;
29984;SDS011;17387;42.690;23.328;2022-12-29T07:32:15;44.63;;;27.02;;
29984;SDS011;17387;42.690;23.328;2022-12-29T07:34:40;45.65;;;27.88;;
29984;SDS011;17387;42.690;23.328;2022-12-29T07:37:06;44.55;;;28.63;;
29984;SDS011;17387;42.690;23.328;2022-12-29T07:39:31;43.65;;;27.92;;
29984;SDS011;17387;42.690;23.328;2022-12-29T07:41:57;48.45;;;29.83;;
29984;SDS011;17387;42.690;23.328;2022-12-29T07:44:22;43.30;;;29.30;;
29984;SDS011;17387;42.690;23.328;2022-12-29T07:46:48;48.58;;;30.10;;
29984;SDS011;17387;42.690;23.328;2022-12-29T07:49:13;50.60;;;30.83;;
29984;SDS011;17387;42.690;23.328;2022-12-29T07:51:38;52.45;;;29.92;;
29984;SDS011;17387;42.690;23.328;2022-12-29T07:54:04;50.25;;;29.80;;
29984;SDS011;17387;42.690;23.328;2022-12-29T07:56:29;47.35;;;28.73;;
29984;SDS011;17387;42.690;23.328;2022-12-29T07:58:58;47.25;;;28.50;;
29984;SDS011;17387;42.690;23.328;2022-12-29T08:01:23;47.30;;;29.80;;
29984;SDS011;17387;42.690;23.328;2022-12-29T08:03:48;46.28;;;28.58;;
29984;SDS011;17387;42.690;23.328;2022-12-29T08:06:14;41.95;;;26.58;;
29984;SDS011;17387;42.690;23.328;2022-12-29T08:08:39;40.75;;;27.08;;
29984;SDS011;17387;42.690;23.328;2022-12-29T08:11:04;42.85;;;27.40;;
29984;SDS011;17387;42.690;23.328;2022-12-29T08:13:30;45.15;;;27.17;;
29984;SDS011;17387;42.690;23.328;2022-12-29T08:15:57;42.00;;;25.75;;
29984;SDS011;17387;42.690;23.328;2022-12-29T08:18:23;46.13;;;28.17;;
29984;SDS011;17387;42.690;23.328;2022-12-29T08:20:49;44.50;;;27.77;;
29984;SDS011;17387;42.690;23.328;2022-12-29T08:23:14;44.15;;;27.65;;
29984;SDS011;17387;42.690;23.328;2022-12-29T08:25:40;41.70;;;27.48;;
29984;SDS011;17387;42.690;23.328;2022-12-29T08:28:05;48.30;;;26.73;;
29984;SDS011;17387;42.690;23.328;2022-12-29T08:30:31;40.65;;;26.27;;
29984;SDS011;17387;42.690;23.328;2022-12-29T08:32:56;39.58;;;26.08;;
29984;SDS011;17387;42.690;23.328;2022-12-29T08:35:21;42.40;;;26.80;;
29984;SDS011;17387;42.690;23.328;2022-12-29T08:37:47;44.88;;;27.00;;
29984;SDS011;17387;42.690;23.328;2022-12-29T08:40:12;37.85;;;26.30;;
29984;SDS011;17387;42.690;23.328;2022-12-29T08:42:39;42.58;;;26.63;;
29984;SDS011;17387;42.690;23.328;2022-12-29T08:45:05;40.60;;;26.17;;
29984;SDS011;17387;42.690;23.328;2022-12-29T08:47:31;44.22;;;27.95;;
29984;SDS011;17387;42.690;23.328;2022-12-29T08:49:56;43.63;;;28.33;;
29984;SDS011;17387;42.690;23.328;2022-12-29T08:52:22;41.95;;;27.90;;
29984;SDS011;17387;42.690;23.328;2022-12-29T08:54:47;42.53;;;28.35;;
29984;SDS011;17387;42.690;23.328;2022-12-29T08:57:13;46.35;;;29.15;;
29984;SDS011;17387;42.690;23.328;2022-12-29T08:59:39;47.45;;;28.83;;
29984;SDS011;17387;42.690;23.328;2022-12-29T09:02:05;48.45;;;28.75;;
29984;SDS011;17387;42.690;23.328;2022-12-29T09:04:31;44.58;;;30.08;;
29984;SDS011;17387;42.690;23.328;2022-12-29T09:06:56;49.30;;;30.08;;
29984;SDS011;17387;42.690;23.328;2022-12-29T09:09:21;44.35;;;27.80;;
29984;SDS011;17387;42.690;23.328;2022-12-29T09:11:47;45.50;;;28.85;;
29984;SDS011;17387;42.690;23.328;2022-12-29T09:14:13;46.75;;;29.25;;
29984;SDS011;17387;42.690;23.328;2022-12-29T09:16:39;46.67;;;29.75;;
29984;SDS011;17387;42.690;23.328;2022-12-29T09:19:23;45.90;;;30.70;;
29984;SDS011;17387;42.690;23.328;2022-12-29T09:21:49;47.08;;;29.90;;
29984;SDS011;17387;42.690;23.328;2022-12-29T09:24:14;48.80;;;29.63;;
29984;SDS011;17387;42.690;23.328;2022-12-29T09:26:39;47.65;;;29.90;;
29984;SDS011;17387;42.690;23.328;2022-12-29T09:29:05;50.47;;;30.17;;
29984;SDS011;17387;42.690;23.328;2022-12-29T09:31:30;45.30;;;28.80;;
29984;SDS011;17387;42.690;23.328;2022-12-29T09:33:56;46.17;;;29.77;;
29984;SDS011;17387;42.690;23.328;2022-12-29T09:36:21;48.55;;;29.00;;
29984;SDS011;17387;42.690;23.328;2022-12-29T09:38:46;45.20;;;29.52;;
29984;SDS011;17387;42.690;23.328;2022-12-29T09:41:17;47.65;;;28.98;;
29984;SDS011;17387;42.690;23.328;2022-12-29T09:46:53;65.63;;;38.25;;
29984;SDS011;17387;42.690;23.328;2022-12-29T09:55:23;48.25;;;31.38;;
29984;SDS011;17387;42.690;23.328;2022-12-29T09:57:56;49.03;;;29.35;;
29984;SDS011;17387;42.690;23.328;2022-12-29T10:00:37;49.53;;;30.50;;
29984;SDS011;17387;42.690;23.328;2022-12-29T10:03:15;45.80;;;29.35;;
29984;SDS011;17387;42.690;23.328;2022-12-29T10:05:46;45.25;;;28.55;;
29984;SDS011;17387;42.690;23.328;2022-12-29T10:10:55;49.65;;;28.48;;
29984;SDS011;17387;42.690;23.328;2022-12-29T10:16:12;41.33;;;27.58;;
29984;SDS011;17387;42.690;23.328;2022-12-29T10:24:16;48.63;;;29.98;;
29984;SDS011;17387;42.690;23.328;2022-12-29T10:26:44;59.83;;;35.45;;
29984;SDS011;17387;42.690;23.328;2022-12-29T10:31:44;54.08;;;35.13;;
29984;SDS011;17387;42.690;23.328;2022-12-29T10:34:19;44.45;;;27.02;;
29984;SDS011;17387;42.690;23.328;2022-12-29T10:36:48;43.15;;;29.58;;
29984;SDS011;17387;42.690;23.328;2022-12-29T10:44:31;46.97;;;30.17;;
29984;SDS011;17387;42.690;23.328;2022-12-29T10:47:00;39.97;;;27.45;;
29984;SDS011;17387;42.690;23.328;2022-12-29T10:49:30;44.22;;;26.85;;
29984;SDS011;17387;42.690;23.328;2022-12-29T10:52:00;42.13;;;27.60;;
29984;SDS011;17387;42.690;23.328;2022-12-29T10:57:00;41.33;;;26.00;;
29984;SDS011;17387;42.690;23.328;2022-12-29T10:59:31;40.72;;;27.23;;
29984;SDS011;17387;42.690;23.328;2022-12-29T11:07:18;43.88;;;27.92;;
29984;SDS011;17387;42.690;23.328;2022-12-29T11:09:45;39.92;;;26.17;;
29984;SDS011;17387;42.690;23.328;2022-12-29T11:17:56;49.15;;;31.35;;
29984;SDS011;17387;42.690;23.328;2022-12-29T11:20:34;46.75;;;28.73;;
29984;SDS011;17387;42.690;23.328;2022-12-29T11:23:04;41.15;;;26.88;;
29984;SDS011;17387;42.690;23.328;2022-12-29T11:25:46;40.97;;;27.23;;
29984;SDS011;17387;42.690;23.328;2022-12-29T11:28:30;43.22;;;27.98;;
29984;SDS011;17387;42.690;23.328;2022-12-29T11:31:00;45.28;;;27.55;;
29984;SDS011;17387;42.690;23.328;2022-12-29T11:33:37;41.70;;;27.33;;
29984;SDS011;17387;42.690;23.328;2022-12-29T11:36:04;46.13;;;29.27;;
29984;SDS011;17387;42.690;23.328;2022-12-29T11:38:39;47.55;;;28.88;;
29984;SDS011;17387;42.690;23.328;2022-12-29T11:41:10;39.17;;;26.35;;
29984;SDS011;17387;42.690;23.328;2022-12-29T11:43:38;41.80;;;26.85;;
29984;SDS011;17387;42.690;23.328;2022-12-29T11:46:07;41.75;;;27.05;;
29984;SDS011;17387;42.690;23.328;2022-12-29T11:48:40;41.65;;;25.52;;
29984;SDS011;17387;42.690;23.328;2022-12-29T11:51:06;40.47;;;26.13;;
29984;SDS011;17387;42.690;23.328;2022-12-29T11:56:09;36.90;;;24.90;;
29984;SDS011;17387;42.690;23.328;2022-12-29T11:58:39;36.17;;;23.75;;
29984;SDS011;17387;42.690;23.328;2022-12-29T12:04:18;36.70;;;23.77;;
29984;SDS011;17387;42.690;23.328;2022-12-29T12:07:11;39.90;;;24.88;;
29984;SDS011;17387;42.690;23.328;2022-12-29T12:09:42;41.30;;;25.65;;
29984;SDS011;17387;42.690;23.328;2022-12-29T12:12:20;38.28;;;25.15;;
29984;SDS011;17387;42.690;23.328;2022-12-29T12:15:00;37.40;;;24.75;;
29984;SDS011;17387;42.690;23.328;2022-12-29T12:17:32;39.00;;;24.45;;
29984;SDS011;17387;42.690;23.328;2022-12-29T12:22:47;41.30;;;25.25;;
29984;SDS011;17387;42.690;23.328;2022-12-29T12:25:29;35.58;;;24.80;;
29984;SDS011;17387;42.690;23.328;2022-12-29T12:28:09;40.13;;;24.63;;
29984;SDS011;17387;42.690;23.328;2022-12-29T12:30:40;40.90;;;26.17;;
29984;SDS011;17387;42.690;23.328;2022-12-29T12:33:31;39.20;;;26.02;;
29984;SDS011;17387;42.690;23.328;2022-12-29T12:53:33;63.72;;;37.88;;
29984;SDS011;17387;42.690;23.328;2022-12-29T12:59:02;35.75;;;24.42;;
29984;SDS011;17387;42.690;23.328;2022-12-29T13:20:47;39.38;;;24.90;;
29984;SDS011;17387;42.690;23.328;2022-12-29T13:26:31;43.67;;;26.60;;
29984;SDS011;17387;42.690;23.328;2022-12-29T13:36:40;38.25;;;23.85;;
29984;SDS011;17387;42.690;23.328;2022-12-29T13:39:19;40.58;;;25.65;;
29984;SDS011;17387;42.690;23.328;2022-12-29T13:42:06;38.15;;;25.15;;
29984;SDS011;17387;42.690;23.328;2022-12-29T13:44:37;41.03;;;25.42;;
29984;SDS011;17387;42.690;23.328;2022-12-29T13:47:20;39.03;;;25.63;;
29984;SDS011;17387;42.690;23.328;2022-12-29T13:49:51;44.90;;;28.35;;
29984;SDS011;17387;42.690;23.328;2022-12-29T14:00:13;44.85;;;26.67;;
29984;SDS011;17387;42.690;23.328;2022-12-29T14:07:48;42.25;;;26.27;;
29984;SDS011;17387;42.690;23.328;2022-12-29T14:13:10;43.03;;;26.52;;
29984;SDS011;17387;42.690;23.328;2022-12-29T14:15:40;43.13;;;25.83;;
29984;SDS011;17387;42.690;23.328;2022-12-29T14:20:39;45.08;;;26.73;;
29984;SDS011;17387;42.690;23.328;2022-12-29T14:23:16;43.55;;;26.65;;
29984;SDS011;17387;42.690;23.328;2022-12-29T14:25:53;45.80;;;28.27;;
29984;SDS011;17387;42.690;23.328;2022-12-29T14:28:23;49.92;;;29.20;;
29984;SDS011;17387;42.690;23.328;2022-12-29T14:36:36;47.10;;;29.35;;
29984;SDS011;17387;42.690;23.328;2022-12-29T14:39:03;44.45;;;28.27;;
29984;SDS011;17387;42.690;23.328;2022-12-29T14:41:48;68.82;;;40.05;;
29984;SDS011;17387;42.690;23.328;2022-12-29T14:44:55;58.67;;;35.13;;
29984;SDS011;17387;42.690;23.328;2022-12-29T14:47:35;76.13;;;41.17;;
29984;SDS011;17387;42.690;23.328;2022-12-29T14:52:56;49.67;;;32.30;;
29984;SDS011;17387;42.690;23.328;2022-12-29T15:00:45;42.72;;;28.33;;
29984;SDS011;17387;42.690;23.328;2022-12-29T15:03:19;50.88;;;32.33;;
29984;SDS011;17387;42.690;23.328;2022-12-29T15:05:52;66.32;;;38.50;;
29984;SDS011;17387;42.690;23.328;2022-12-29T15:08:20;43.97;;;30.00;;
29984;SDS011;17387;42.690;23.328;2022-12-29T15:13:34;76.20;;;44.97;;
29984;SDS011;17387;42.690;23.328;2022-12-29T15:16:01;64.70;;;34.22;;
29984;SDS011;17387;42.690;23.328;2022-12-29T15:18:30;64.00;;;38.15;;
29984;SDS011;17387;42.690;23.328;2022-12-29T15:20:58;52.80;;;30.73;;
29984;SDS011;17387;42.690;23.328;2022-12-29T15:23:26;56.65;;;33.65;;
29984;SDS011;17387;42.690;23.328;2022-12-29T15:25:55;53.60;;;33.90;;
29984;SDS011;17387;42.690;23.328;2022-12-29T15:28:23;48.85;;;31.10;;
29984;SDS011;17387;42.690;23.328;2022-12-29T15:31:12;56.75;;;36.28;;
29984;SDS011;17387;42.690;23.328;2022-12-29T15:33:41;60.60;;;38.22;;
29984;SDS011;17387;42.690;23.328;2022-12-29T15:36:12;60.08;;;35.47;;
29984;SDS011;17387;42.690;23.328;2022-12-29T15:38:44;68.78;;;41.33;;
29984;SDS011;17387;42.690;23.328;2022-12-29T15:44:28;68.63;;;41.92;;
29984;SDS011;17387;42.690;23.328;2022-12-29T15:50:05;74.72;;;44.00;;
29984;SDS011;17387;42.690;23.328;2022-12-29T15:52:40;71.65;;;41.15;;
29984;SDS011;17387;42.690;23.328;2022-12-29T15:55:05;95.05;;;55.10;;
29984;SDS011;17387;42.690;23.328;2022-12-29T15:57:42;92.35;;;52.35;;
29984;SDS011;17387;42.690;23.328;2022-12-29T16:00:21;75.85;;;43.53;;
29984;SDS011;17387;42.690;23.328;2022-12-29T16:02:50;109.53;;;60.13;;
29984;SDS011;17387;42.690;23.328;2022-12-29T16:05:16;67.65;;;41.08;;
29984;SDS011;17387;42.690;23.328;2022-12-29T16:07:53;84.95;;;47.55;;
29984;SDS011;17387;42.690;23.328;2022-12-29T16:15:17;67.18;;;38.00;;
29984;SDS011;17387;42.690;23.328;2022-12-29T16:17:46;86.68;;;47.10;;
29984;SDS011;17387;42.690;23.328;2022-12-29T16:20:20;75.10;;;44.30;;
29984;SDS011;17387;42.690;23.328;2022-12-29T16:22:53;86.35;;;45.55;;
29984;SDS011;17387;42.690;23.328;2022-12-29T16:27:50;77.80;;;43.70;;
29984;SDS011;17387;42.690;23.328;2022-12-29T16:32:49;79.38;;;44.80;;
29984;SDS011;17387;42.690;23.328;2022-12-29T16:35:20;72.53;;;41.80;;
29984;SDS011;17387;42.690;23.328;2022-12-29T16:38:06;93.22;;;48.15;;
29984;SDS011;17387;42.690;23.328;2022-12-29T16:40:33;84.00;;;46.17;;
29984;SDS011;17387;42.690;23.328;2022-12-29T16:43:03;147.35;;;88.70;;
29984;SDS011;17387;42.690;23.328;2022-12-29T16:50:39;103.30;;;56.22;;
29984;SDS011;17387;42.690;23.328;2022-12-29T16:55:49;124.25;;;66.78;;
29984;SDS011;17387;42.690;23.328;2022-12-29T16:58:18;109.07;;;67.45;;
29984;SDS011;17387;42.690;23.328;2022-12-29T17:00:47;118.38;;;70.30;;
29984;SDS011;17387;42.690;23.328;2022-12-29T17:03:13;130.48;;;72.70;;
29984;SDS011;17387;42.690;23.328;2022-12-29T17:05:40;122.53;;;70.60;;
29984;SDS011;17387;42.690;23.328;2022-12-29T17:08:39;120.60;;;71.50;;
29984;SDS011;17387;42.690;23.328;2022-12-29T17:11:08;117.75;;;67.97;;
29984;SDS011;17387;42.690;23.328;2022-12-29T17:14:12;125.05;;;68.78;;
29984;SDS011;17387;42.690;23.328;2022-12-29T17:16:44;122.10;;;65.80;;
29984;SDS011;17387;42.690;23.328;2022-12-29T17:19:11;123.95;;;69.93;;
29984;SDS011;17387;42.690;23.328;2022-12-29T17:21:44;117.28;;;68.65;;
29984;SDS011;17387;42.690;23.328;2022-12-29T17:24:19;119.25;;;69.15;;
29984;SDS011;17387;42.690;23.328;2022-12-29T17:26:48;138.38;;;76.55;;
29984;SDS011;17387;42.690;23.328;2022-12-29T17:29:37;132.75;;;75.80;;
29984;SDS011;17387;42.690;23.328;2022-12-29T17:32:04;136.57;;;75.88;;
29984;SDS011;17387;42.690;23.328;2022-12-29T17:34:34;147.75;;;82.70;;
29984;SDS011;17387;42.690;23.328;2022-12-29T17:37:00;148.80;;;82.80;;
29984;SDS011;17387;42.690;23.328;2022-12-29T17:39:35;149.50;;;82.70;;
29984;SDS011;17387;42.690;23.328;2022-12-29T17:42:00;167.80;;;92.10;;
29984;SDS011;17387;42.690;23.328;2022-12-29T17:44:25;148.93;;;86.50;;
29984;SDS011;17387;42.690;23.328;2022-12-29T17:46:51;158.00;;;84.90;;
29984;SDS011;17387;42.690;23.328;2022-12-29T17:49:17;155.70;;;90.63;;